sensor_id;sensor_type;location;lat;lon;timestamp;P1;durP1;ratioP1;P2;durP2;ratioP2
59424;SDS011;45231;44.826;20.312;2023-02-21T00:02:20;37.55;;;21.75;;
59424;SDS011;45231;44.826;20.312;2023-02-21T00:05:05;39.13;;;21.50;;
59424;SDS011;45231;44.826;20.312;2023-02-21T00:07:50;38.92;;;20.73;;
59424;SDS011;45231;44.826;20.312;2023-02-21T00:10:35;40.60;;;21.75;;
59424;SDS011;45231;44.826;20.312;2023-02-21T00:13:19;38.08;;;20.75;;
59424;SDS011;45231;44.826;20.312;2023-02-21T00:16:04;39.78;;;21.83;;
59424;SDS011;45231;44.826;20.312;2023-02-21T00:18:48;34.78;;;20.60;;
59424;SDS011;45231;44.826;20.312;2023-02-21T00:21:33;37.72;;;21.48;;
59424;SDS011;45231;44.826;20.312;2023-02-21T00:24:18;39.95;;;22.95;;
59424;SDS011;45231;44.826;20.312;2023-02-21T00:27:03;43.50;;;24.65;;
59424;SDS011;45231;44.826;20.312;2023-02-21T00:29:48;40.75;;;24.13;;
59424;SDS011;45231;44.826;20.312;2023-02-21T00:32:33;41.13;;;24.48;;
59424;SDS011;45231;44.826;20.312;2023-02-21T00:35:19;38.80;;;21.05;;
59424;SDS011;45231;44.826;20.312;2023-02-21T00:38:03;37.25;;;21.65;;
59424;SDS011;45231;44.826;20.312;2023-02-21T00:40:48;41.20;;;22.17;;
59424;SDS011;45231;44.826;20.312;2023-02-21T00:43:33;41.28;;;22.92;;
59424;SDS011;45231;44.826;20.312;2023-02-21T00:46:18;37.60;;;21.02;;
59424;SDS011;45231;44.826;20.312;2023-02-21T00:49:03;42.35;;;22.98;;
59424;SDS011;45231;44.826;20.312;2023-02-21T00:51:48;39.25;;;24.27;;
59424;SDS011;45231;44.826;20.312;2023-02-21T00:54:33;43.35;;;23.67;;
59424;SDS011;45231;44.826;20.312;2023-02-21T00:57:18;39.90;;;22.08;;
59424;SDS011;45231;44.826;20.312;2023-02-21T01:00:03;43.00;;;23.42;;
59424;SDS011;45231;44.826;20.312;2023-02-21T01:02:48;41.72;;;22.92;;
59424;SDS011;45231;44.826;20.312;2023-02-21T01:05:33;41.55;;;22.05;;
59424;SDS011;45231;44.826;20.312;2023-02-21T01:08:17;41.00;;;23.08;;
59424;SDS011;45231;44.826;20.312;2023-02-21T01:11:02;41.10;;;22.92;;
59424;SDS011;45231;44.826;20.312;2023-02-21T01:13:47;40.38;;;22.17;;
59424;SDS011;45231;44.826;20.312;2023-02-21T01:16:32;37.45;;;20.35;;
59424;SDS011;45231;44.826;20.312;2023-02-21T01:19:17;35.67;;;21.25;;
59424;SDS011;45231;44.826;20.312;2023-02-21T01:22:02;39.60;;;21.58;;
59424;SDS011;45231;44.826;20.312;2023-02-21T01:24:48;35.50;;;21.40;;
59424;SDS011;45231;44.826;20.312;2023-02-21T01:27:37;37.72;;;20.85;;
59424;SDS011;45231;44.826;20.312;2023-02-21T01:30:21;42.05;;;21.00;;
59424;SDS011;45231;44.826;20.312;2023-02-21T01:33:07;31.58;;;18.95;;
59424;SDS011;45231;44.826;20.312;2023-02-21T01:35:57;33.00;;;19.48;;
59424;SDS011;45231;44.826;20.312;2023-02-21T01:38:42;37.88;;;21.35;;
59424;SDS011;45231;44.826;20.312;2023-02-21T01:41:26;42.80;;;22.38;;
59424;SDS011;45231;44.826;20.312;2023-02-21T01:44:32;45.65;;;23.60;;
59424;SDS011;45231;44.826;20.312;2023-02-21T01:47:17;43.88;;;23.95;;
59424;SDS011;45231;44.826;20.312;2023-02-21T01:50:05;39.05;;;20.95;;
59424;SDS011;45231;44.826;20.312;2023-02-21T01:52:50;38.63;;;22.45;;
59424;SDS011;45231;44.826;20.312;2023-02-21T01:55:35;40.22;;;23.85;;
59424;SDS011;45231;44.826;20.312;2023-02-21T01:58:22;43.45;;;23.85;;
59424;SDS011;45231;44.826;20.312;2023-02-21T02:01:08;43.40;;;23.30;;
59424;SDS011;45231;44.826;20.312;2023-02-21T02:03:54;43.63;;;24.17;;
59424;SDS011;45231;44.826;20.312;2023-02-21T02:06:39;42.50;;;24.88;;
59424;SDS011;45231;44.826;20.312;2023-02-21T02:09:24;40.45;;;21.83;;
59424;SDS011;45231;44.826;20.312;2023-02-21T02:20:43;36.08;;;19.35;;
59424;SDS011;45231;44.826;20.312;2023-02-21T02:28:09;37.20;;;19.80;;
59424;SDS011;45231;44.826;20.312;2023-02-21T02:33:22;32.72;;;18.95;;
59424;SDS011;45231;44.826;20.312;2023-02-21T02:35:57;34.10;;;20.35;;
59424;SDS011;45231;44.826;20.312;2023-02-21T02:38:26;34.92;;;20.33;;
59424;SDS011;45231;44.826;20.312;2023-02-21T02:46:36;34.85;;;20.42;;
59424;SDS011;45231;44.826;20.312;2023-02-21T02:49:06;36.70;;;20.10;;
59424;SDS011;45231;44.826;20.312;2023-02-21T02:51:34;33.70;;;20.05;;
59424;SDS011;45231;44.826;20.312;2023-02-21T02:54:00;33.40;;;20.42;;
59424;SDS011;45231;44.826;20.312;2023-02-21T02:56:26;34.00;;;19.73;;
59424;SDS011;45231;44.826;20.312;2023-02-21T02:59:02;31.73;;;19.83;;
59424;SDS011;45231;44.826;20.312;2023-02-21T03:15:24;34.42;;;19.67;;
59424;SDS011;45231;44.826;20.312;2023-02-21T03:17:31;32.58;;;19.30;;
59424;SDS011;45231;44.826;20.312;2023-02-21T03:19:59;32.55;;;19.48;;
59424;SDS011;45231;44.826;20.312;2023-02-21T03:22:27;35.10;;;19.58;;
59424;SDS011;45231;44.826;20.312;2023-02-21T03:24:54;30.90;;;18.15;;
59424;SDS011;45231;44.826;20.312;2023-02-21T03:27:20;35.00;;;19.10;;
59424;SDS011;45231;44.826;20.312;2023-02-21T03:29:47;35.38;;;19.63;;
59424;SDS011;45231;44.826;20.312;2023-02-21T03:34:40;35.40;;;19.60;;
59424;SDS011;45231;44.826;20.312;2023-02-21T03:39:32;36.90;;;20.70;;
59424;SDS011;45231;44.826;20.312;2023-02-21T03:41:58;33.25;;;19.77;;
59424;SDS011;45231;44.826;20.312;2023-02-21T03:44:24;38.43;;;20.50;;
59424;SDS011;45231;44.826;20.312;2023-02-21T03:46:50;31.80;;;18.75;;
59424;SDS011;45231;44.826;20.312;2023-02-21T03:49:16;42.08;;;21.83;;
59424;SDS011;45231;44.826;20.312;2023-02-21T03:51:42;38.60;;;21.42;;
59424;SDS011;45231;44.826;20.312;2023-02-21T03:54:08;34.47;;;20.88;;
59424;SDS011;45231;44.826;20.312;2023-02-21T03:56:34;38.10;;;21.35;;
59424;SDS011;45231;44.826;20.312;2023-02-21T03:59:01;37.72;;;21.95;;
59424;SDS011;45231;44.826;20.312;2023-02-21T04:01:27;36.67;;;19.83;;
59424;SDS011;45231;44.826;20.312;2023-02-21T04:03:53;36.00;;;20.30;;
59424;SDS011;45231;44.826;20.312;2023-02-21T04:06:19;35.53;;;21.60;;
59424;SDS011;45231;44.826;20.312;2023-02-21T04:08:45;38.47;;;20.27;;
59424;SDS011;45231;44.826;20.312;2023-02-21T04:11:11;39.85;;;21.98;;
59424;SDS011;45231;44.826;20.312;2023-02-21T04:13:37;36.70;;;20.73;;
59424;SDS011;45231;44.826;20.312;2023-02-21T04:16:04;35.10;;;20.88;;
59424;SDS011;45231;44.826;20.312;2023-02-21T04:18:30;36.53;;;20.37;;
59424;SDS011;45231;44.826;20.312;2023-02-21T04:20:56;34.97;;;20.83;;
59424;SDS011;45231;44.826;20.312;2023-02-21T04:23:22;39.30;;;20.77;;
59424;SDS011;45231;44.826;20.312;2023-02-21T04:25:48;33.97;;;20.00;;
59424;SDS011;45231;44.826;20.312;2023-02-21T04:28:14;34.20;;;20.33;;
59424;SDS011;45231;44.826;20.312;2023-02-21T04:30:40;34.88;;;19.63;;
59424;SDS011;45231;44.826;20.312;2023-02-21T04:33:07;34.25;;;20.23;;
59424;SDS011;45231;44.826;20.312;2023-02-21T04:35:33;37.43;;;20.60;;
59424;SDS011;45231;44.826;20.312;2023-02-21T04:37:59;34.13;;;20.10;;
59424;SDS011;45231;44.826;20.312;2023-02-21T04:40:25;39.23;;;21.13;;
59424;SDS011;45231;44.826;20.312;2023-02-21T04:42:51;35.80;;;21.10;;
59424;SDS011;45231;44.826;20.312;2023-02-21T04:45:17;34.80;;;20.10;;
59424;SDS011;45231;44.826;20.312;2023-02-21T04:47:43;35.00;;;19.40;;
59424;SDS011;45231;44.826;20.312;2023-02-21T04:50:09;34.58;;;20.27;;
59424;SDS011;45231;44.826;20.312;2023-02-21T04:52:36;38.97;;;20.20;;
59424;SDS011;45231;44.826;20.312;2023-02-21T04:55:05;35.95;;;20.27;;
59424;SDS011;45231;44.826;20.312;2023-02-21T04:57:31;38.03;;;21.03;;
59424;SDS011;45231;44.826;20.312;2023-02-21T04:59:57;38.63;;;20.08;;
59424;SDS011;45231;44.826;20.312;2023-02-21T05:04:50;35.35;;;20.27;;
59424;SDS011;45231;44.826;20.312;2023-02-21T05:07:16;38.38;;;22.00;;
59424;SDS011;45231;44.826;20.312;2023-02-21T05:09:42;41.67;;;23.00;;
59424;SDS011;45231;44.826;20.312;2023-02-21T05:12:08;40.65;;;22.13;;
59424;SDS011;45231;44.826;20.312;2023-02-21T05:14:36;37.38;;;21.50;;
59424;SDS011;45231;44.826;20.312;2023-02-21T05:17:03;36.97;;;21.30;;
59424;SDS011;45231;44.826;20.312;2023-02-21T05:19:29;40.53;;;21.88;;
59424;SDS011;45231;44.826;20.312;2023-02-21T05:21:56;36.10;;;21.75;;
59424;SDS011;45231;44.826;20.312;2023-02-21T05:26:56;39.28;;;21.85;;
59424;SDS011;45231;44.826;20.312;2023-02-21T05:29:22;39.05;;;22.08;;
59424;SDS011;45231;44.826;20.312;2023-02-21T05:31:48;41.35;;;22.15;;
59424;SDS011;45231;44.826;20.312;2023-02-21T05:34:14;42.88;;;23.42;;
59424;SDS011;45231;44.826;20.312;2023-02-21T05:36:43;52.45;;;26.35;;
59424;SDS011;45231;44.826;20.312;2023-02-21T05:39:09;45.10;;;24.43;;
59424;SDS011;45231;44.826;20.312;2023-02-21T05:41:35;47.08;;;25.95;;
59424;SDS011;45231;44.826;20.312;2023-02-21T05:44:01;51.97;;;27.17;;
59424;SDS011;45231;44.826;20.312;2023-02-21T05:46:29;45.58;;;25.92;;
59424;SDS011;45231;44.826;20.312;2023-02-21T05:48:56;47.88;;;25.83;;
59424;SDS011;45231;44.826;20.312;2023-02-21T05:51:22;55.78;;;24.83;;
59424;SDS011;45231;44.826;20.312;2023-02-21T05:53:49;42.78;;;24.08;;
59424;SDS011;45231;44.826;20.312;2023-02-21T05:56:15;41.10;;;23.15;;
59424;SDS011;45231;44.826;20.312;2023-02-21T05:58:42;43.47;;;23.75;;
59424;SDS011;45231;44.826;20.312;2023-02-21T06:01:08;37.40;;;21.17;;
59424;SDS011;45231;44.826;20.312;2023-02-21T06:03:34;41.57;;;21.87;;
59424;SDS011;45231;44.826;20.312;2023-02-21T06:06:01;30.25;;;20.40;;
59424;SDS011;45231;44.826;20.312;2023-02-21T06:08:27;34.85;;;20.70;;
59424;SDS011;45231;44.826;20.312;2023-02-21T06:10:53;28.60;;;18.65;;
59424;SDS011;45231;44.826;20.312;2023-02-21T06:15:45;30.05;;;16.23;;
59424;SDS011;45231;44.826;20.312;2023-02-21T06:20:37;24.10;;;14.77;;
59424;SDS011;45231;44.826;20.312;2023-02-21T06:23:03;20.52;;;13.45;;
59424;SDS011;45231;44.826;20.312;2023-02-21T06:25:29;17.85;;;13.07;;
59424;SDS011;45231;44.826;20.312;2023-02-21T06:27:55;18.88;;;13.35;;
59424;SDS011;45231;44.826;20.312;2023-02-21T06:30:21;20.98;;;14.82;;
59424;SDS011;45231;44.826;20.312;2023-02-21T06:35:14;16.80;;;12.18;;
59424;SDS011;45231;44.826;20.312;2023-02-21T06:37:40;20.00;;;12.93;;
59424;SDS011;45231;44.826;20.312;2023-02-21T06:40:06;18.25;;;13.00;;
59424;SDS011;45231;44.826;20.312;2023-02-21T06:42:32;16.80;;;12.40;;
59424;SDS011;45231;44.826;20.312;2023-02-21T06:44:59;16.70;;;12.60;;
59424;SDS011;45231;44.826;20.312;2023-02-21T06:47:25;26.92;;;13.52;;
59424;SDS011;45231;44.826;20.312;2023-02-21T06:49:51;19.63;;;13.05;;
59424;SDS011;45231;44.826;20.312;2023-02-21T06:52:17;20.13;;;13.80;;
59424;SDS011;45231;44.826;20.312;2023-02-21T06:54:43;18.42;;;12.65;;
59424;SDS011;45231;44.826;20.312;2023-02-21T06:57:10;18.88;;;12.32;;
59424;SDS011;45231;44.826;20.312;2023-02-21T06:59:36;18.30;;;12.15;;
59424;SDS011;45231;44.826;20.312;2023-02-21T07:02:17;15.88;;;12.20;;
59424;SDS011;45231;44.826;20.312;2023-02-21T07:04:44;21.35;;;12.80;;
59424;SDS011;45231;44.826;20.312;2023-02-21T07:07:10;16.17;;;9.98;;
59424;SDS011;45231;44.826;20.312;2023-02-21T07:09:37;21.40;;;11.05;;
59424;SDS011;45231;44.826;20.312;2023-02-21T07:12:03;16.13;;;11.30;;
59424;SDS011;45231;44.826;20.312;2023-02-21T07:14:29;15.85;;;12.27;;
59424;SDS011;45231;44.826;20.312;2023-02-21T07:16:55;15.77;;;11.57;;
59424;SDS011;45231;44.826;20.312;2023-02-21T07:19:21;23.38;;;11.82;;
59424;SDS011;45231;44.826;20.312;2023-02-21T07:21:47;17.25;;;12.25;;
59424;SDS011;45231;44.826;20.312;2023-02-21T07:24:13;18.85;;;12.48;;
59424;SDS011;45231;44.826;20.312;2023-02-21T07:26:43;20.40;;;12.10;;
59424;SDS011;45231;44.826;20.312;2023-02-21T07:29:09;14.65;;;10.63;;
59424;SDS011;45231;44.826;20.312;2023-02-21T07:31:35;14.48;;;11.50;;
59424;SDS011;45231;44.826;20.312;2023-02-21T07:34:01;17.80;;;11.38;;
59424;SDS011;45231;44.826;20.312;2023-02-21T07:36:27;13.70;;;10.48;;
59424;SDS011;45231;44.826;20.312;2023-02-21T07:38:53;23.10;;;10.65;;
59424;SDS011;45231;44.826;20.312;2023-02-21T07:41:20;17.10;;;10.57;;
59424;SDS011;45231;44.826;20.312;2023-02-21T07:43:46;14.85;;;10.90;;
59424;SDS011;45231;44.826;20.312;2023-02-21T07:46:12;14.13;;;10.85;;
59424;SDS011;45231;44.826;20.312;2023-02-21T07:48:39;13.70;;;10.07;;
59424;SDS011;45231;44.826;20.312;2023-02-21T07:51:05;13.90;;;10.60;;
59424;SDS011;45231;44.826;20.312;2023-02-21T07:53:32;14.68;;;11.48;;
59424;SDS011;45231;44.826;20.312;2023-02-21T07:55:58;25.13;;;10.95;;
59424;SDS011;45231;44.826;20.312;2023-02-21T07:58:24;14.73;;;10.90;;
59424;SDS011;45231;44.826;20.312;2023-02-21T08:00:50;13.25;;;10.32;;
59424;SDS011;45231;44.826;20.312;2023-02-21T08:03:16;15.50;;;9.27;;
59424;SDS011;45231;44.826;20.312;2023-02-21T08:05:43;13.63;;;9.93;;
59424;SDS011;45231;44.826;20.312;2023-02-21T08:08:10;11.95;;;8.77;;
59424;SDS011;45231;44.826;20.312;2023-02-21T08:10:36;15.25;;;8.27;;
59424;SDS011;45231;44.826;20.312;2023-02-21T08:13:03;11.75;;;7.32;;
59424;SDS011;45231;44.826;20.312;2023-02-21T08:15:29;14.25;;;7.47;;
59424;SDS011;45231;44.826;20.312;2023-02-21T08:17:55;10.98;;;7.05;;
59424;SDS011;45231;44.826;20.312;2023-02-21T08:20:21;10.80;;;6.97;;
59424;SDS011;45231;44.826;20.312;2023-02-21T08:22:47;10.18;;;7.38;;
59424;SDS011;45231;44.826;20.312;2023-02-21T08:25:14;12.75;;;8.38;;
59424;SDS011;45231;44.826;20.312;2023-02-21T08:27:41;11.85;;;8.02;;
59424;SDS011;45231;44.826;20.312;2023-02-21T08:30:08;11.15;;;8.23;;
59424;SDS011;45231;44.826;20.312;2023-02-21T08:32:35;12.73;;;7.95;;
59424;SDS011;45231;44.826;20.312;2023-02-21T08:35:02;13.02;;;8.82;;
59424;SDS011;45231;44.826;20.312;2023-02-21T08:37:29;11.65;;;8.40;;
59424;SDS011;45231;44.826;20.312;2023-02-21T08:39:57;11.60;;;7.82;;
59424;SDS011;45231;44.826;20.312;2023-02-21T08:42:24;10.70;;;7.68;;
59424;SDS011;45231;44.826;20.312;2023-02-21T08:44:50;10.13;;;6.88;;
59424;SDS011;45231;44.826;20.312;2023-02-21T08:47:17;11.38;;;7.55;;
59424;SDS011;45231;44.826;20.312;2023-02-21T08:49:43;13.57;;;7.88;;
59424;SDS011;45231;44.826;20.312;2023-02-21T08:52:11;9.93;;;7.45;;
59424;SDS011;45231;44.826;20.312;2023-02-21T08:54:37;13.90;;;7.63;;
59424;SDS011;45231;44.826;20.312;2023-02-21T08:57:03;11.63;;;7.70;;
59424;SDS011;45231;44.826;20.312;2023-02-21T08:59:29;14.00;;;8.32;;
59424;SDS011;45231;44.826;20.312;2023-02-21T09:01:57;10.73;;;7.63;;
59424;SDS011;45231;44.826;20.312;2023-02-21T09:04:24;11.43;;;7.97;;
59424;SDS011;45231;44.826;20.312;2023-02-21T09:06:51;11.73;;;8.45;;
59424;SDS011;45231;44.826;20.312;2023-02-21T09:09:18;13.23;;;8.18;;
59424;SDS011;45231;44.826;20.312;2023-02-21T09:11:44;13.80;;;8.73;;
59424;SDS011;45231;44.826;20.312;2023-02-21T09:14:12;10.05;;;7.72;;
59424;SDS011;45231;44.826;20.312;2023-02-21T09:16:39;11.32;;;8.18;;
59424;SDS011;45231;44.826;20.312;2023-02-21T09:19:05;11.05;;;8.35;;
59424;SDS011;45231;44.826;20.312;2023-02-21T09:21:32;12.23;;;8.07;;
59424;SDS011;45231;44.826;20.312;2023-02-21T09:23:58;11.45;;;7.95;;
59424;SDS011;45231;44.826;20.312;2023-02-21T09:26:27;11.00;;;7.60;;
59424;SDS011;45231;44.826;20.312;2023-02-21T09:28:56;11.13;;;7.93;;
59424;SDS011;45231;44.826;20.312;2023-02-21T09:31:22;12.45;;;7.85;;
59424;SDS011;45231;44.826;20.312;2023-02-21T09:33:48;10.25;;;7.25;;
59424;SDS011;45231;44.826;20.312;2023-02-21T09:36:14;9.55;;;6.78;;
59424;SDS011;45231;44.826;20.312;2023-02-21T09:38:42;11.10;;;6.53;;
59424;SDS011;45231;44.826;20.312;2023-02-21T09:41:10;12.13;;;7.15;;
59424;SDS011;45231;44.826;20.312;2023-02-21T09:43:38;10.43;;;7.05;;
59424;SDS011;45231;44.826;20.312;2023-02-21T09:46:05;10.65;;;7.18;;
59424;SDS011;45231;44.826;20.312;2023-02-21T09:48:33;12.18;;;7.65;;
59424;SDS011;45231;44.826;20.312;2023-02-21T09:51:01;14.48;;;7.82;;
59424;SDS011;45231;44.826;20.312;2023-02-21T09:53:28;13.77;;;8.13;;
59424;SDS011;45231;44.826;20.312;2023-02-21T09:55:56;12.07;;;7.78;;
59424;SDS011;45231;44.826;20.312;2023-02-21T09:58:24;13.50;;;7.55;;
59424;SDS011;45231;44.826;20.312;2023-02-21T10:00:50;11.38;;;7.82;;
59424;SDS011;45231;44.826;20.312;2023-02-21T10:10:57;9.70;;;7.57;;
59424;SDS011;45231;44.826;20.312;2023-02-21T10:15:54;10.70;;;7.32;;
59424;SDS011;45231;44.826;20.312;2023-02-21T10:21:08;8.55;;;5.40;;
59424;SDS011;45231;44.826;20.312;2023-02-21T10:23:37;9.07;;;4.10;;
59424;SDS011;45231;44.826;20.312;2023-02-21T10:26:09;7.28;;;3.80;;
59424;SDS011;45231;44.826;20.312;2023-02-21T10:28:36;7.10;;;3.75;;
59424;SDS011;45231;44.826;20.312;2023-02-21T10:31:14;7.63;;;3.67;;
59424;SDS011;45231;44.826;20.312;2023-02-21T10:33:42;7.53;;;3.85;;
59424;SDS011;45231;44.826;20.312;2023-02-21T10:38:34;6.15;;;3.92;;
59424;SDS011;45231;44.826;20.312;2023-02-21T10:41:01;5.80;;;3.67;;
59424;SDS011;45231;44.826;20.312;2023-02-21T10:43:43;8.82;;;3.95;;
59424;SDS011;45231;44.826;20.312;2023-02-21T10:46:22;12.40;;;4.72;;
59424;SDS011;45231;44.826;20.312;2023-02-21T10:48:54;8.23;;;4.70;;
59424;SDS011;45231;44.826;20.312;2023-02-21T10:51:30;8.60;;;4.68;;
59424;SDS011;45231;44.826;20.312;2023-02-21T10:54:42;7.70;;;4.75;;
59424;SDS011;45231;44.826;20.312;2023-02-21T10:56:44;7.05;;;4.40;;
59424;SDS011;45231;44.826;20.312;2023-02-21T10:59:12;8.13;;;5.13;;
59424;SDS011;45231;44.826;20.312;2023-02-21T11:01:44;7.95;;;4.90;;
59424;SDS011;45231;44.826;20.312;2023-02-21T11:06:50;11.25;;;6.18;;
59424;SDS011;45231;44.826;20.312;2023-02-21T11:12:25;11.68;;;5.50;;
59424;SDS011;45231;44.826;20.312;2023-02-21T11:17:17;8.15;;;5.25;;
59424;SDS011;45231;44.826;20.312;2023-02-21T11:22:13;7.88;;;4.90;;
59424;SDS011;45231;44.826;20.312;2023-02-21T11:24:46;8.75;;;4.93;;
59424;SDS011;45231;44.826;20.312;2023-02-21T11:27:14;8.02;;;4.18;;
59424;SDS011;45231;44.826;20.312;2023-02-21T11:29:48;7.20;;;4.30;;
59424;SDS011;45231;44.826;20.312;2023-02-21T11:32:34;10.43;;;4.28;;
59424;SDS011;45231;44.826;20.312;2023-02-21T11:35:06;8.30;;;5.25;;
59424;SDS011;45231;44.826;20.312;2023-02-21T11:37:32;8.48;;;4.40;;
59424;SDS011;45231;44.826;20.312;2023-02-21T11:39:59;10.52;;;5.47;;
59424;SDS011;45231;44.826;20.312;2023-02-21T11:42:27;12.52;;;4.90;;
59424;SDS011;45231;44.826;20.312;2023-02-21T11:45:13;10.57;;;5.68;;
59424;SDS011;45231;44.826;20.312;2023-02-21T11:47:48;10.73;;;4.80;;
59424;SDS011;45231;44.826;20.312;2023-02-21T11:52:47;9.80;;;4.53;;
59424;SDS011;45231;44.826;20.312;2023-02-21T11:55:16;8.35;;;4.13;;
59424;SDS011;45231;44.826;20.312;2023-02-21T12:03:27;8.77;;;5.05;;
59424;SDS011;45231;44.826;20.312;2023-02-21T12:11:27;8.68;;;5.13;;
59424;SDS011;45231;44.826;20.312;2023-02-21T12:24:17;10.30;;;4.13;;
59424;SDS011;45231;44.826;20.312;2023-02-21T12:26:48;7.63;;;4.28;;
59424;SDS011;45231;44.826;20.312;2023-02-21T12:40:19;8.35;;;3.70;;
59424;SDS011;45231;44.826;20.312;2023-02-21T12:43:35;9.65;;;3.30;;
59424;SDS011;45231;44.826;20.312;2023-02-21T12:50:46;6.68;;;3.20;;
59424;SDS011;45231;44.826;20.312;2023-02-21T12:56:14;6.20;;;3.15;;
59424;SDS011;45231;44.826;20.312;2023-02-21T12:58:34;7.13;;;3.42;;
59424;SDS011;45231;44.826;20.312;2023-02-21T13:01:05;7.68;;;3.28;;
59424;SDS011;45231;44.826;20.312;2023-02-21T13:03:52;7.47;;;3.30;;
59424;SDS011;45231;44.826;20.312;2023-02-21T13:13:57;6.63;;;3.45;;
59424;SDS011;45231;44.826;20.312;2023-02-21T13:16:24;7.25;;;3.63;;
59424;SDS011;45231;44.826;20.312;2023-02-21T13:18:52;9.48;;;3.63;;
59424;SDS011;45231;44.826;20.312;2023-02-21T13:29:18;8.40;;;4.10;;
59424;SDS011;45231;44.826;20.312;2023-02-21T13:31:45;7.00;;;3.88;;
59424;SDS011;45231;44.826;20.312;2023-02-21T13:34:12;8.93;;;4.43;;
59424;SDS011;45231;44.826;20.312;2023-02-21T13:36:43;6.68;;;4.03;;
59424;SDS011;45231;44.826;20.312;2023-02-21T13:39:12;8.80;;;4.18;;
59424;SDS011;45231;44.826;20.312;2023-02-21T13:44:10;7.40;;;4.50;;
59424;SDS011;45231;44.826;20.312;2023-02-21T13:51:48;7.93;;;4.30;;
59424;SDS011;45231;44.826;20.312;2023-02-21T13:54:21;20.88;;;5.00;;
59424;SDS011;45231;44.826;20.312;2023-02-21T13:56:48;10.90;;;5.22;;
59424;SDS011;45231;44.826;20.312;2023-02-21T13:59:31;11.57;;;5.32;;
59424;SDS011;45231;44.826;20.312;2023-02-21T14:02:19;10.27;;;5.20;;
59424;SDS011;45231;44.826;20.312;2023-02-21T14:04:57;9.20;;;5.30;;
59424;SDS011;45231;44.826;20.312;2023-02-21T14:10:24;10.45;;;5.22;;
59424;SDS011;45231;44.826;20.312;2023-02-21T14:12:55;8.50;;;4.30;;
59424;SDS011;45231;44.826;20.312;2023-02-21T14:15:22;8.82;;;4.78;;
59424;SDS011;45231;44.826;20.312;2023-02-21T14:17:49;7.60;;;3.70;;
59424;SDS011;45231;44.826;20.312;2023-02-21T14:20:16;7.15;;;3.80;;
59424;SDS011;45231;44.826;20.312;2023-02-21T14:22:44;7.68;;;3.78;;
59424;SDS011;45231;44.826;20.312;2023-02-21T14:25:17;7.68;;;3.63;;
59424;SDS011;45231;44.826;20.312;2023-02-21T14:27:44;6.00;;;3.30;;
59424;SDS011;45231;44.826;20.312;2023-02-21T14:35:19;7.78;;;3.92;;
59424;SDS011;45231;44.826;20.312;2023-02-21T14:38:06;9.18;;;3.88;;
59424;SDS011;45231;44.826;20.312;2023-02-21T15:01:20;10.13;;;4.80;;
59424;SDS011;45231;44.826;20.312;2023-02-21T15:06:33;10.57;;;5.13;;
59424;SDS011;45231;44.826;20.312;2023-02-21T15:09:10;13.48;;;5.35;;
59424;SDS011;45231;44.826;20.312;2023-02-21T15:11:37;13.00;;;5.55;;
59424;SDS011;45231;44.826;20.312;2023-02-21T15:14:15;20.05;;;5.25;;
59424;SDS011;45231;44.826;20.312;2023-02-21T15:16:48;10.32;;;4.68;;
59424;SDS011;45231;44.826;20.312;2023-02-21T15:19:22;9.48;;;4.78;;
59424;SDS011;45231;44.826;20.312;2023-02-21T15:22:05;9.00;;;4.78;;
59424;SDS011;45231;44.826;20.312;2023-02-21T15:24:31;9.77;;;4.75;;
59424;SDS011;45231;44.826;20.312;2023-02-21T15:27:12;11.18;;;4.82;;
59424;SDS011;45231;44.826;20.312;2023-02-21T15:29:39;11.10;;;5.28;;
59424;SDS011;45231;44.826;20.312;2023-02-21T15:32:05;10.77;;;5.07;;
59424;SDS011;45231;44.826;20.312;2023-02-21T15:34:34;10.82;;;5.22;;
59424;SDS011;45231;44.826;20.312;2023-02-21T15:40:05;10.00;;;5.47;;
59424;SDS011;45231;44.826;20.312;2023-02-21T15:42:36;11.32;;;5.70;;
59424;SDS011;45231;44.826;20.312;2023-02-21T15:45:05;12.80;;;5.32;;
59424;SDS011;45231;44.826;20.312;2023-02-21T15:47:32;11.77;;;5.60;;
59424;SDS011;45231;44.826;20.312;2023-02-21T15:52:45;10.80;;;5.90;;
59424;SDS011;45231;44.826;20.312;2023-02-21T15:57:38;11.77;;;6.45;;
59424;SDS011;45231;44.826;20.312;2023-02-21T16:00:24;10.35;;;6.22;;
59424;SDS011;45231;44.826;20.312;2023-02-21T16:02:51;17.58;;;6.80;;
59424;SDS011;45231;44.826;20.312;2023-02-21T16:05:29;35.63;;;7.50;;
59424;SDS011;45231;44.826;20.312;2023-02-21T16:08:01;27.23;;;8.32;;
59424;SDS011;45231;44.826;20.312;2023-02-21T16:10:31;15.80;;;7.18;;
59424;SDS011;45231;44.826;20.312;2023-02-21T16:12:57;35.47;;;7.88;;
59424;SDS011;45231;44.826;20.312;2023-02-21T16:15:28;21.90;;;7.57;;
59424;SDS011;45231;44.826;20.312;2023-02-21T16:17:59;13.98;;;7.70;;
59424;SDS011;45231;44.826;20.312;2023-02-21T16:20:29;14.73;;;7.15;;
59424;SDS011;45231;44.826;20.312;2023-02-21T16:38:13;18.05;;;6.72;;
59424;SDS011;45231;44.826;20.312;2023-02-21T16:40:39;16.23;;;6.85;;
59424;SDS011;45231;44.826;20.312;2023-02-21T16:43:06;16.15;;;7.90;;
59424;SDS011;45231;44.826;20.312;2023-02-21T16:45:32;13.57;;;7.03;;
59424;SDS011;45231;44.826;20.312;2023-02-21T16:48:02;15.73;;;7.28;;
59424;SDS011;45231;44.826;20.312;2023-02-21T16:50:33;14.57;;;6.57;;
59424;SDS011;45231;44.826;20.312;2023-02-21T16:52:59;15.05;;;6.13;;
59424;SDS011;45231;44.826;20.312;2023-02-21T16:55:26;15.65;;;6.93;;
59424;SDS011;45231;44.826;20.312;2023-02-21T16:57:53;16.90;;;6.95;;
59424;SDS011;45231;44.826;20.312;2023-02-21T17:00:20;19.65;;;7.03;;
59424;SDS011;45231;44.826;20.312;2023-02-21T17:02:47;18.65;;;6.45;;
59424;SDS011;45231;44.826;20.312;2023-02-21T17:05:13;13.27;;;6.47;;
59424;SDS011;45231;44.826;20.312;2023-02-21T17:07:39;15.85;;;6.97;;
59424;SDS011;45231;44.826;20.312;2023-02-21T17:10:06;18.95;;;7.18;;
59424;SDS011;45231;44.826;20.312;2023-02-21T17:12:32;17.63;;;6.78;;
59424;SDS011;45231;44.826;20.312;2023-02-21T17:14:59;21.90;;;7.10;;
59424;SDS011;45231;44.826;20.312;2023-02-21T17:17:26;15.73;;;7.25;;
59424;SDS011;45231;44.826;20.312;2023-02-21T17:19:52;17.33;;;7.55;;
59424;SDS011;45231;44.826;20.312;2023-02-21T17:22:18;14.70;;;7.70;;
59424;SDS011;45231;44.826;20.312;2023-02-21T17:24:44;26.33;;;17.17;;
59424;SDS011;45231;44.826;20.312;2023-02-21T17:27:10;38.95;;;18.95;;
59424;SDS011;45231;44.826;20.312;2023-02-21T17:29:36;36.05;;;19.17;;
59424;SDS011;45231;44.826;20.312;2023-02-21T17:32:02;33.13;;;17.38;;
59424;SDS011;45231;44.826;20.312;2023-02-21T17:34:34;30.48;;;17.40;;
59424;SDS011;45231;44.826;20.312;2023-02-21T17:37:00;27.08;;;16.23;;
59424;SDS011;45231;44.826;20.312;2023-02-21T17:39:26;34.00;;;19.83;;
59424;SDS011;45231;44.826;20.312;2023-02-21T17:41:53;44.65;;;25.67;;
59424;SDS011;45231;44.826;20.312;2023-02-21T17:44:21;49.05;;;30.48;;
59424;SDS011;45231;44.826;20.312;2023-02-21T17:46:51;60.60;;;36.45;;
59424;SDS011;45231;44.826;20.312;2023-02-21T17:49:19;63.10;;;35.80;;
59424;SDS011;45231;44.826;20.312;2023-02-21T17:51:46;69.45;;;37.55;;
59424;SDS011;45231;44.826;20.312;2023-02-21T17:54:13;80.80;;;46.33;;
59424;SDS011;45231;44.826;20.312;2023-02-21T17:59:05;93.32;;;47.90;;